Time;durP1;ratioP1;P1;durP2;ratioP2;P2;SDS_P1;SDS_P2;PMS_P1;PMS_P2;Temp;Humidity;BMP_temperature;BMP_pressure;BME280_temperature;BME280_humidity;BME280_pressure;Samples;Min_cycle;Max_cycle;Signal;HPM_P1;HPM_P2
2023/02/17 00:02:23;;;;;;;5.67;3.60;;;10.10;99.90;;;;;;4992051;28;20211;-74
2023/02/17 00:04:49;;;;;;;5.10;3.63;;;10.10;99.90;;;;;;4991609;28;20202;-74
2023/02/17 00:07:14;;;;;;;5.73;3.73;;;10.10;99.90;;;;;;4974483;28;20198;-74
2023/02/17 00:09:40;;;;;;;7.90;4.00;;;10.10;99.90;;;;;;4990884;28;20277;-75
2023/02/17 00:12:05;;;;;;;6.73;4.57;;;10.10;99.90;;;;;;4972982;28;20221;-74
2023/02/17 00:14:31;;;;;;;6.53;4.10;;;10.00;99.90;;;;;;4972763;28;20188;-74
2023/02/17 00:16:56;;;;;;;4.10;3.70;;;10.00;99.90;;;;;;4972518;28;20741;-74
2023/02/17 00:19:22;;;;;;;5.97;4.33;;;10.00;99.90;;;;;;4986715;28;20771;-74
2023/02/17 00:21:53;;;;;;;3.60;2.97;;;10.00;99.90;;;;;;4982251;28;20205;-74
2023/02/17 00:24:19;;;;;;;8.97;4.50;;;9.90;99.90;;;;;;4986225;28;20246;-74
2023/02/17 00:26:45;;;;;;;9.93;3.67;;;9.90;99.90;;;;;;4983342;28;20499;-74
2023/02/17 00:29:10;;;;;;;5.53;3.70;;;9.90;99.90;;;;;;4991086;28;20197;-74
2023/02/17 00:31:36;;;;;;;5.10;3.73;;;9.80;99.90;;;;;;4983467;28;20223;-73
2023/02/17 00:34:01;;;;;;;8.17;4.10;;;9.80;99.90;;;;;;4972561;28;20253;-74
2023/02/17 00:36:27;;;;;;;5.53;4.10;;;9.90;99.90;;;;;;4979998;28;20869;-73
2023/02/17 00:38:55;;;;;;;4.90;3.67;;;9.90;99.90;;;;;;4990902;28;20218;-74
2023/02/17 00:41:21;;;;;;;5.23;3.90;;;9.90;99.90;;;;;;4991622;28;20527;-74
2023/02/17 00:43:47;;;;;;;6.50;3.73;;;9.80;99.90;;;;;;4973681;28;20936;-73
2023/02/17 00:46:13;;;;;;;4.00;3.70;;;9.80;99.90;;;;;;4991256;28;20431;-73
2023/02/17 00:48:39;;;;;;;6.03;4.40;;;9.80;99.90;;;;;;4983211;28;21066;-74
2023/02/17 00:51:05;;;;;;;4.80;3.77;;;9.80;99.90;;;;;;4991377;28;20225;-74
2023/02/17 00:53:30;;;;;;;10.63;3.77;;;9.80;99.90;;;;;;4991616;28;20193;-74
2023/02/17 00:55:56;;;;;;;5.47;4.23;;;9.70;99.90;;;;;;4989625;28;22616;-74
2023/02/17 00:58:22;;;;;;;4.53;3.43;;;9.70;99.90;;;;;;4985824;28;20257;-74
2023/02/17 01:00:47;;;;;;;9.00;4.10;;;9.70;99.90;;;;;;4990629;28;20221;-74
2023/02/17 01:03:13;;;;;;;4.67;3.70;;;9.70;99.90;;;;;;4991411;28;20522;-74
2023/02/17 01:05:47;;;;;;;6.40;3.40;;;9.70;99.90;;;;;;4990809;28;20195;-73
2023/02/17 01:08:14;;;;;;;3.77;3.00;;;9.70;99.90;;;;;;4990346;28;20209;-74
2023/02/17 01:10:42;;;;;;;5.53;3.70;;;9.70;99.90;;;;;;4983623;28;20519;-73
2023/02/17 01:13:08;;;;;;;8.80;4.03;;;9.70;99.90;;;;;;4991562;28;20441;-74
2023/02/17 01:15:42;;;;;;;5.10;3.70;;;9.70;99.90;;;;;;4994786;28;20450;-74
2023/02/17 01:18:08;;;;;;;5.43;3.60;;;9.70;99.90;;;;;;4987246;28;20505;-74
2023/02/17 01:20:35;;;;;;;4.07;2.60;;;9.70;99.90;;;;;;4994474;28;20445;-73
2023/02/17 01:23:01;;;;;;;5.77;3.03;;;9.70;99.90;;;;;;4984014;28;20284;-74
2023/02/17 01:25:26;;;;;;;4.87;4.30;;;9.70;99.90;;;;;;4982165;28;20462;-74
2023/02/17 01:27:53;;;;;;;5.90;3.00;;;9.70;99.90;;;;;;4976456;28;20443;-74
2023/02/17 01:30:18;;;;;;;8.03;3.47;;;9.70;99.90;;;;;;4989488;28;20692;-73
2023/02/17 01:32:44;;;;;;;9.23;4.10;;;9.80;99.90;;;;;;4989903;28;20469;-74
2023/02/17 01:35:09;;;;;;;6.53;3.80;;;9.70;99.90;;;;;;4984588;28;20206;-74
2023/02/17 01:37:35;;;;;;;6.80;3.93;;;9.70;99.90;;;;;;4986770;28;20217;-74
2023/02/17 01:40:00;;;;;;;8.63;3.53;;;9.60;99.90;;;;;;4994262;28;20248;-74
2023/02/17 01:42:27;;;;;;;4.90;3.40;;;9.60;99.90;;;;;;4994328;28;20221;-74
2023/02/17 01:45:17;;;;;;;7.53;3.27;;;9.60;99.90;;;;;;4983343;28;20194;-73
2023/02/17 01:48:04;;;;;;;5.47;3.30;;;9.60;99.90;;;;;;4993746;28;20833;-73
2023/02/17 01:50:53;;;;;;;4.93;3.03;;;9.50;99.90;;;;;;4981841;28;20445;-74
2023/02/17 01:53:25;;;;;;;8.03;4.13;;;9.50;99.90;;;;;;4987401;28;20440;-74
2023/02/17 01:55:52;;;;;;;9.67;4.00;;;9.40;99.90;;;;;;4992007;28;20453;-74
2023/02/17 01:58:22;;;;;;;4.87;3.50;;;9.40;99.90;;;;;;4994355;28;20484;-75
2023/02/17 03:31:24;;;;;;;8.60;3.90;;;9.30;99.90;;;;;;5671016;22;20511;-71
2023/02/17 03:33:50;;;;;;;3.67;2.43;;;9.30;99.90;;;;;;5013917;28;20478;-71
2023/02/17 03:36:16;;;;;;;11.30;3.87;;;9.30;99.90;;;;;;5012054;28;20667;-73
2023/02/17 03:38:41;;;;;;;6.30;3.50;;;9.30;99.90;;;;;;5015832;28;20208;-72
2023/02/17 03:41:07;;;;;;;4.73;2.50;;;9.40;99.90;;;;;;5020081;28;20702;-75
2023/02/17 03:43:32;;;;;;;3.57;2.93;;;9.40;99.90;;;;;;5011332;28;20562;-72
2023/02/17 03:45:58;;;;;;;6.73;2.93;;;9.50;99.90;;;;;;5011085;28;20588;-72
2023/02/17 03:48:23;;;;;;;5.03;3.23;;;9.50;99.90;;;;;;5011743;28;20247;-75
2023/02/17 03:50:49;;;;;;;3.53;2.90;;;9.50;99.90;;;;;;5011528;28;20244;-73
2023/02/17 03:53:14;;;;;;;5.00;3.10;;;9.50;99.90;;;;;;5011778;28;20608;-72
2023/02/17 03:55:40;;;;;;;5.17;3.73;;;9.50;99.90;;;;;;4994238;28;20193;-73
2023/02/17 03:58:05;;;;;;;5.93;3.30;;;9.50;99.90;;;;;;5010595;28;20343;-73
2023/02/17 04:00:31;;;;;;;7.80;3.03;;;9.50;99.90;;;;;;5011242;28;20280;-72
2023/02/17 04:02:56;;;;;;;5.70;3.90;;;9.60;99.90;;;;;;5011025;28;20182;-73
2023/02/17 04:05:23;;;;;;;4.40;2.43;;;9.60;99.90;;;;;;5007748;28;20585;-73
2023/02/17 04:07:49;;;;;;;4.50;2.73;;;9.60;99.90;;;;;;5011034;28;20197;-73
2023/02/17 04:10:15;;;;;;;5.67;2.97;;;9.60;99.90;;;;;;5003714;28;20491;-74
2023/02/17 04:12:40;;;;;;;5.30;3.20;;;9.60;99.90;;;;;;5010690;28;20476;-74
2023/02/17 04:15:06;;;;;;;9.23;3.83;;;9.60;99.90;;;;;;5011213;28;20692;-73
2023/02/17 04:17:32;;;;;;;8.10;4.47;;;9.70;99.90;;;;;;5011098;28;20275;-73
2023/02/17 04:19:57;;;;;;;3.77;2.90;;;9.70;99.90;;;;;;5011309;28;20604;-74
2023/02/17 04:22:23;;;;;;;5.63;4.07;;;9.70;99.90;;;;;;5011535;28;20639;-73
2023/02/17 04:24:48;;;;;;;6.93;3.00;;;9.60;99.90;;;;;;5011181;28;20194;-73
2023/02/17 04:27:14;;;;;;;4.10;3.07;;;9.70;99.90;;;;;;5011401;28;20193;-73
2023/02/17 04:29:39;;;;;;;4.73;2.70;;;9.80;99.90;;;;;;5011111;28;20201;-72
2023/02/17 04:32:05;;;;;;;8.40;3.20;;;9.80;99.90;;;;;;5011136;28;20673;-72
2023/02/17 04:34:30;;;;;;;11.33;3.00;;;9.80;99.90;;;;;;5009842;28;20543;-73
2023/02/17 04:36:56;;;;;;;3.77;3.10;;;9.80;99.90;;;;;;5010855;28;20182;-72
2023/02/17 04:39:21;;;;;;;5.20;3.20;;;9.80;99.90;;;;;;5011446;28;20343;-72
2023/02/17 04:41:47;;;;;;;4.23;3.83;;;9.80;99.90;;;;;;5010381;28;20679;-73
2023/02/17 04:44:12;;;;;;;5.43;3.23;;;9.90;99.90;;;;;;5011216;28;20198;-74
2023/02/17 04:46:38;;;;;;;4.50;2.97;;;9.90;99.90;;;;;;5010688;28;20593;-73
2023/02/17 04:49:03;;;;;;;3.60;2.77;;;9.90;99.90;;;;;;5010923;28;20200;-73
2023/02/17 04:51:29;;;;;;;6.13;3.20;;;10.00;99.90;;;;;;5011136;28;20292;-75
2023/02/17 04:53:54;;;;;;;3.27;2.87;;;10.00;99.90;;;;;;5010917;28;20234;-73
2023/02/17 04:56:20;;;;;;;5.23;3.30;;;10.00;99.90;;;;;;5011312;28;20197;-73
2023/02/17 04:58:45;;;;;;;4.20;2.40;;;10.00;99.90;;;;;;5010769;28;20274;-74
2023/02/17 05:01:11;;;;;;;6.20;2.93;;;10.00;99.90;;;;;;5010409;28;20225;-73
2023/02/17 05:03:36;;;;;;;3.80;2.63;;;10.00;99.90;;;;;;5011257;28;20601;-73
2023/02/17 05:06:02;;;;;;;6.90;3.37;;;10.00;99.90;;;;;;5010556;28;20236;-73
2023/02/17 05:08:27;;;;;;;3.90;3.43;;;10.00;99.90;;;;;;5009866;28;20523;-73
2023/02/17 05:10:53;;;;;;;4.13;2.80;;;10.00;99.90;;;;;;5010720;28;20217;-73
2023/02/17 05:13:19;;;;;;;5.40;3.30;;;10.00;99.90;;;;;;5011032;28;20615;-73
2023/02/17 05:15:45;;;;;;;7.03;3.23;;;10.00;99.90;;;;;;5010499;28;20193;-73
2023/02/17 05:18:12;;;;;;;5.03;3.83;;;10.10;99.90;;;;;;5010551;28;20636;-73
2023/02/17 05:20:38;;;;;;;4.50;2.83;;;10.00;99.90;;;;;;5010889;28;20472;-73
2023/02/17 05:23:03;;;;;;;3.97;2.60;;;10.00;99.90;;;;;;5011680;28;20481;-72
2023/02/17 05:25:29;;;;;;;3.30;2.70;;;10.00;99.90;;;;;;5011245;28;20425;-73
2023/02/17 05:27:54;;;;;;;4.70;2.77;;;10.00;99.90;;;;;;5010546;28;20190;-72
2023/02/17 05:30:20;;;;;;;7.17;4.40;;;10.00;99.90;;;;;;5012603;28;20189;-73
2023/02/17 05:32:46;;;;;;;4.87;3.30;;;10.00;99.90;;;;;;5010568;28;20213;-73
2023/02/17 05:35:11;;;;;;;10.40;3.23;;;10.10;99.90;;;;;;5009766;28;20198;-73
2023/02/17 05:37:37;;;;;;;5.70;3.20;;;10.10;99.90;;;;;;5011390;28;20244;-73
2023/02/17 05:40:03;;;;;;;9.37;2.97;;;10.10;99.90;;;;;;5010907;28;20192;-73
2023/02/17 05:42:28;;;;;;;7.30;3.23;;;10.10;99.90;;;;;;5010726;28;20253;-73
2023/02/17 05:44:55;;;;;;;4.17;3.03;;;10.10;99.90;;;;;;5009931;28;20464;-72
2023/02/17 05:47:21;;;;;;;4.10;3.40;;;10.10;99.90;;;;;;5008026;28;20186;-73
2023/02/17 05:49:47;;;;;;;6.00;3.50;;;10.10;99.90;;;;;;5006336;28;21015;-74
2023/02/17 05:52:12;;;;;;;4.20;3.23;;;10.10;99.90;;;;;;5011894;28;20457;-73
2023/02/17 05:54:38;;;;;;;3.60;3.30;;;10.10;99.90;;;;;;5014027;28;20188;-74
2023/02/17 05:57:03;;;;;;;6.60;4.00;;;10.10;99.90;;;;;;5013370;28;20198;-73
2023/02/17 05:59:29;;;;;;;4.37;3.23;;;10.10;99.90;;;;;;5013781;28;20221;-74
2023/02/17 06:01:54;;;;;;;5.67;3.20;;;10.10;99.90;;;;;;5012260;28;20202;-70
2023/02/17 06:04:20;;;;;;;6.00;4.10;;;10.10;99.90;;;;;;5013967;28;20569;-70
2023/02/17 06:06:45;;;;;;;6.50;3.73;;;10.10;99.90;;;;;;5013108;28;20186;-75
2023/02/17 06:09:11;;;;;;;9.10;3.33;;;10.10;99.90;;;;;;5013975;28;20201;-74
2023/02/17 06:11:37;;;;;;;5.93;3.40;;;10.10;99.90;;;;;;5013898;28;20694;-73
2023/02/17 06:14:02;;;;;;;7.33;3.20;;;10.10;99.90;;;;;;5013958;28;20194;-73
2023/02/17 06:16:28;;;;;;;6.53;3.37;;;10.10;99.90;;;;;;4996054;28;20263;-75
2023/02/17 06:18:54;;;;;;;7.80;3.73;;;10.10;99.90;;;;;;5013741;28;20502;-74
2023/02/17 06:21:19;;;;;;;5.17;3.37;;;10.20;99.90;;;;;;5013635;28;20213;-74
2023/02/17 06:23:45;;;;;;;3.20;2.90;;;10.20;99.90;;;;;;5013683;28;20185;-74
2023/02/17 06:26:11;;;;;;;9.23;3.37;;;10.20;99.90;;;;;;5013404;28;20188;-73
2023/02/17 06:28:36;;;;;;;5.37;3.50;;;10.30;99.90;;;;;;5013196;28;20190;-72
2023/02/17 06:31:02;;;;;;;4.40;3.33;;;10.30;99.90;;;;;;5013115;28;20221;-73
2023/02/17 06:33:27;;;;;;;8.67;3.10;;;10.30;99.90;;;;;;5013486;28;20681;-73
2023/02/17 06:35:53;;;;;;;11.10;3.60;;;10.30;99.90;;;;;;5013032;28;20186;-75
2023/02/17 06:38:18;;;;;;;3.27;2.83;;;10.30;99.90;;;;;;5013037;28;20249;-73
2023/02/17 06:40:44;;;;;;;4.27;3.03;;;10.30;99.90;;;;;;5013144;28;20214;-73
2023/02/17 06:43:10;;;;;;;8.10;3.50;;;10.30;99.90;;;;;;5013528;28;20202;-72
2023/02/17 06:45:35;;;;;;;6.90;3.93;;;10.30;99.90;;;;;;5012911;28;20193;-73
2023/02/17 06:48:01;;;;;;;8.33;3.40;;;10.30;99.90;;;;;;5012956;28;20191;-73
2023/02/17 06:50:26;;;;;;;11.23;3.40;;;10.30;99.90;;;;;;5013522;28;20191;-73
2023/02/17 06:52:52;;;;;;;4.23;3.40;;;10.30;99.90;;;;;;5013306;28;20595;-74
2023/02/17 06:55:18;;;;;;;3.70;3.30;;;10.40;99.90;;;;;;5012913;28;20699;-73
2023/02/17 06:57:43;;;;;;;7.37;3.37;;;10.30;99.90;;;;;;5012562;28;20820;-73
2023/02/17 07:00:09;;;;;;;6.50;3.90;;;10.40;99.90;;;;;;4994596;28;20194;-74
2023/02/17 07:02:38;;;;;;;6.10;2.87;;;10.40;99.90;;;;;;5012318;28;20809;-73
2023/02/17 07:05:05;;;;;;;6.97;3.07;;;10.40;99.90;;;;;;5010920;28;20428;-72
2023/02/17 07:07:31;;;;;;;4.17;2.80;;;10.40;99.90;;;;;;4990898;28;20471;-75
2023/02/17 07:09:56;;;;;;;6.30;4.70;;;10.40;99.90;;;;;;5012357;28;20942;-73
2023/02/17 07:12:22;;;;;;;5.03;3.70;;;10.40;99.90;;;;;;5013694;28;20691;-73
2023/02/17 07:14:47;;;;;;;4.93;3.10;;;10.40;99.90;;;;;;5012588;28;20228;-73
2023/02/17 07:17:13;;;;;;;4.00;2.77;;;10.40;99.90;;;;;;5011848;28;20202;-73
2023/02/17 07:19:38;;;;;;;5.23;3.70;;;10.40;99.90;;;;;;5011796;28;20186;-73
2023/02/17 07:22:04;;;;;;;10.63;4.73;;;10.40;99.90;;;;;;5011967;28;20280;-73
2023/02/17 07:24:29;;;;;;;3.73;3.43;;;10.50;99.90;;;;;;5012090;28;20274;-73
2023/02/17 07:26:55;;;;;;;3.93;3.37;;;10.40;99.90;;;;;;5012299;28;20193;-74
2023/02/17 07:29:22;;;;;;;4.63;2.93;;;10.40;99.90;;;;;;5012214;28;20194;-73
2023/02/17 07:31:47;;;;;;;4.73;2.80;;;10.50;99.90;;;;;;5012034;28;20235;-72
2023/02/17 07:34:13;;;;;;;4.47;3.40;;;10.50;99.90;;;;;;5012280;28;20524;-73
2023/02/17 07:36:38;;;;;;;5.57;3.20;;;10.50;99.90;;;;;;5011838;28;20550;-75
2023/02/17 07:39:04;;;;;;;5.50;2.97;;;10.60;99.90;;;;;;5012223;28;20221;-73
2023/02/17 07:41:32;;;;;;;5.27;2.80;;;10.60;99.90;;;;;;5012203;28;20571;-74
2023/02/17 07:43:58;;;;;;;5.07;3.47;;;10.60;99.90;;;;;;5012245;28;20236;-73
2023/02/17 07:46:24;;;;;;;4.03;3.03;;;10.60;99.90;;;;;;5012144;28;20458;-73
2023/02/17 07:48:50;;;;;;;6.13;3.10;;;10.60;99.90;;;;;;5011909;28;20856;-73
2023/02/17 07:51:19;;;;;;;8.30;2.57;;;10.70;99.90;;;;;;5011792;28;20495;-73
2023/02/17 07:53:45;;;;;;;3.90;3.27;;;10.70;99.90;;;;;;5011977;28;20225;-74
2023/02/17 07:56:13;;;;;;;4.77;2.87;;;10.70;99.90;;;;;;5011669;28;20799;-74
2023/02/17 07:58:41;;;;;;;4.10;2.57;;;10.70;99.90;;;;;;4994087;28;20511;-74
2023/02/17 08:01:07;;;;;;;4.67;2.67;;;10.70;99.90;;;;;;5011924;28;20511;-73
2023/02/17 08:03:32;;;;;;;2.93;2.23;;;10.70;99.90;;;;;;5011971;28;20441;-73
2023/02/17 08:05:58;;;;;;;3.00;2.50;;;10.70;99.90;;;;;;5011698;28;20488;-73
2023/02/17 08:13:56;;;;;;;10.47;2.43;;;10.90;99.90;;;;;;5011877;28;20441;-73
2023/02/17 08:16:22;;;;;;;3.93;2.67;;;11.00;99.90;;;;;;5011992;28;20444;-72
2023/02/17 08:18:47;;;;;;;4.07;2.80;;;11.10;99.90;;;;;;5010968;28;20206;-74
2023/02/17 08:21:13;;;;;;;7.73;2.70;;;11.20;99.90;;;;;;5010209;28;20221;-73
2023/02/17 08:23:38;;;;;;;2.70;2.43;;;11.40;99.90;;;;;;5011463;28;20197;-74
2023/02/17 08:26:04;;;;;;;3.00;2.80;;;11.60;99.90;;;;;;5010465;28;20558;-73
2023/02/17 08:28:29;;;;;;;4.23;2.30;;;11.70;99.90;;;;;;5013853;28;20194;-75
2023/02/17 08:30:55;;;;;;;9.43;2.27;;;11.90;99.90;;;;;;5014644;28;20222;-72
2023/02/17 08:33:21;;;;;;;2.70;2.00;;;11.90;99.90;;;;;;5007539;28;20200;-73
2023/02/17 08:35:46;;;;;;;2.10;1.63;;;11.80;99.90;;;;;;5010621;28;20197;-74
2023/02/17 08:38:12;;;;;;;6.10;2.33;;;11.70;99.90;;;;;;4992363;28;20642;-74
2023/02/17 08:40:38;;;;;;;2.30;2.10;;;11.70;99.90;;;;;;5011321;28;20237;-74
2023/02/17 08:43:08;;;;;;;2.93;2.00;;;11.70;99.90;;;;;;5011610;28;20869;-73
2023/02/17 08:45:35;;;;;;;2.33;2.10;;;11.60;99.90;;;;;;5010661;28;20190;-73
2023/02/17 08:48:02;;;;;;;3.20;2.47;;;11.60;99.90;;;;;;5011448;28;20903;-73
2023/02/17 08:50:27;;;;;;;3.10;2.70;;;11.70;99.90;;;;;;5011161;28;20429;-73
2023/02/17 08:52:53;;;;;;;2.30;2.20;;;11.80;99.90;;;;;;5012242;28;20523;-73
2023/02/17 08:55:19;;;;;;;2.10;2.00;;;11.80;99.90;;;;;;5009992;28;20269;-73
2023/02/17 08:57:44;;;;;;;4.87;2.30;;;11.80;99.90;;;;;;5011195;28;20213;-73
2023/02/17 09:00:10;;;;;;;2.30;2.10;;;11.80;99.90;;;;;;5011228;28;20461;-74
2023/02/17 09:02:36;;;;;;;5.10;2.23;;;11.80;99.90;;;;;;5011190;28;20247;-74
2023/02/17 09:05:03;;;;;;;3.43;2.80;;;11.70;99.90;;;;;;5011137;28;20432;-75
2023/02/17 09:07:28;;;;;;;3.23;2.20;;;11.60;99.90;;;;;;5010990;28;20185;-74
2023/02/17 09:09:54;;;;;;;3.50;2.20;;;11.50;99.90;;;;;;5011240;28;20992;-74
2023/02/17 09:12:19;;;;;;;4.90;1.57;;;11.50;99.90;;;;;;5011738;28;20240;-72
2023/02/17 09:14:45;;;;;;;3.47;2.10;;;11.50;99.90;;;;;;4993316;28;20182;-73
2023/02/17 09:17:10;;;;;;;3.43;1.90;;;11.40;99.90;;;;;;5011891;28;20199;-73
2023/02/17 09:19:39;;;;;;;4.93;2.07;;;11.30;99.90;;;;;;5012145;28;20210;-74
2023/02/17 09:22:05;;;;;;;2.10;1.90;;;11.30;99.90;;;;;;5011161;28;20209;-74
2023/02/17 09:24:32;;;;;;;2.47;2.27;;;11.30;99.90;;;;;;5010533;28;20934;-76
2023/02/17 09:26:58;;;;;;;3.40;2.57;;;11.30;99.90;;;;;;5008034;28;20190;-73
2023/02/17 09:29:23;;;;;;;6.00;1.50;;;11.40;99.90;;;;;;5016953;28;20524;-73
2023/02/17 09:31:49;;;;;;;2.00;1.70;;;11.60;99.90;;;;;;5014400;28;20222;-74
2023/02/17 09:34:14;;;;;;;2.50;2.00;;;11.60;99.90;;;;;;5017233;28;20636;-72
2023/02/17 09:36:41;;;;;;;1.77;1.43;;;11.70;99.90;;;;;;5021277;28;20195;-73
2023/02/17 09:39:08;;;;;;;2.43;1.67;;;11.70;99.90;;;;;;5014828;28;20291;-72
2023/02/17 09:41:42;;;;;;;2.00;1.57;;;11.90;99.90;;;;;;5006854;28;20452;-74
2023/02/17 09:44:37;;;;;;;1.70;1.60;;;12.00;99.90;;;;;;5014543;28;20421;-72
2023/02/17 09:47:15;;;;;;;3.22;1.80;;;12.10;99.90;;;;;;5010413;28;20427;-74
2023/02/17 09:49:45;;;;;;;3.77;2.20;;;12.20;99.90;;;;;;5010928;28;20652;-74
2023/02/17 09:52:19;;;;;;;3.73;1.73;;;12.20;99.90;;;;;;5014179;28;20434;-74
2023/02/17 09:55:08;;;;;;;7.13;1.60;;;12.20;99.90;;;;;;5014362;28;20794;-74
2023/02/17 09:58:04;;;;;;;2.30;1.97;;;12.10;99.90;;;;;;5006069;28;20425;-73
2023/02/17 10:00:44;;;;;;;1.47;1.37;;;12.10;99.90;;;;;;4988184;28;20465;-74
2023/02/17 10:03:36;;;;;;;2.10;1.37;;;12.30;99.90;;;;;;5013468;28;20437;-72
2023/02/17 10:06:29;;;;;;;1.93;1.73;;;12.50;99.90;;;;;;5013667;28;20425;-73
2023/02/17 10:09:18;;;;;;;5.63;1.83;;;12.70;99.90;;;;;;5008819;28;20655;-74
2023/02/17 10:11:53;;;;;;;2.70;1.50;;;12.80;99.90;;;;;;5012381;28;20499;-74
2023/02/17 10:14:30;;;;;;;5.13;1.70;;;12.90;99.90;;;;;;5015549;28;20938;-73
2023/02/17 10:17:22;;;;;;;1.47;1.37;;;12.80;99.90;;;;;;5014023;28;20429;-73
2023/02/17 10:20:01;;;;;;;10.53;2.07;;;12.60;99.90;;;;;;5007733;28;20421;-73
2023/02/17 10:22:27;;;;;;;2.17;1.13;;;12.70;99.90;;;;;;5013939;28;20447;-72
2023/02/17 10:24:52;;;;;;;1.93;1.20;;;12.80;99.90;;;;;;5013570;28;20425;-74
2023/02/17 10:27:33;;;;;;;1.20;0.87;;;13.00;99.90;;;;;;5012551;28;20190;-74
2023/02/17 10:30:01;;;;;;;1.37;0.97;;;13.20;99.90;;;;;;5013827;28;20186;-75
2023/02/17 10:32:27;;;;;;;2.07;0.97;;;13.40;99.90;;;;;;5013561;28;20875;-73
2023/02/17 10:35:15;;;;;;;1.10;0.90;;;13.70;99.90;;;;;;5013120;28;20425;-74
2023/02/17 10:37:49;;;;;;;3.67;0.77;;;14.00;99.90;;;;;;5013485;28;20461;-75
2023/02/17 10:40:26;;;;;;;0.80;0.80;;;14.20;99.90;;;;;;5012509;28;20442;-74
2023/02/17 10:43:00;;;;;;;4.50;1.17;;;14.20;99.90;;;;;;5013736;28;20433;-74
2023/02/17 10:45:43;;;;;;;2.20;1.10;;;14.20;99.90;;;;;;4996356;28;20429;-74
2023/02/17 10:48:14;;;;;;;2.90;0.90;;;14.20;99.90;;;;;;4996701;28;20946;-74
2023/02/17 10:50:41;;;;;;;6.83;3.20;;;14.20;99.90;;;;;;5005870;28;20426;-74
2023/02/17 10:53:16;;;;;;;2.50;1.37;;;14.30;99.90;;;;;;5013522;28;20926;-75
2023/02/17 10:56:06;;;;;;;1.47;0.90;;;14.60;99.90;;;;;;5006405;28;20787;-76
2023/02/17 10:58:44;;;;;;;1.00;0.90;;;14.70;99.90;;;;;;5013344;28;20540;-76
2023/02/17 11:01:11;;;;;;;1.20;0.90;;;15.10;99.90;;;;;;5014332;28;20492;-75
2023/02/17 11:03:39;;;;;;;2.30;0.90;;;15.20;99.90;;;;;;5012360;28;20437;-74
2023/02/17 11:06:15;;;;;;;1.57;0.60;;;15.20;99.90;;;;;;5013089;28;20934;-74
2023/02/17 11:09:00;;;;;;;1.40;0.70;;;15.30;99.90;;;;;;4987089;28;20452;-73
2023/02/17 11:11:29;;;;;;;1.57;0.80;;;15.50;99.90;;;;;;5015688;28;21016;-74
2023/02/17 11:14:16;;;;;;;6.13;0.70;;;15.70;99.90;;;;;;5012002;28;21021;-74
2023/02/17 11:16:49;;;;;;;3.53;0.80;;;15.60;99.90;;;;;;5010257;28;20926;-75
2023/02/17 11:19:33;;;;;;;3.40;0.73;;;15.50;99.90;;;;;;5012459;28;20481;-73
2023/02/17 11:22:01;;;;;;;5.13;0.67;;;15.50;99.90;;;;;;5012940;28;20441;-74
2023/02/17 11:24:29;;;;;;;2.50;0.60;;;15.50;99.90;;;;;;5012022;28;20800;-74
2023/02/17 11:27:02;;;;;;;1.50;0.80;;;15.30;99.90;;;;;;5012450;28;20434;-74
2023/02/17 11:29:29;;;;;;;3.13;1.17;;;15.30;99.90;;;;;;5012116;28;20471;-76
2023/02/17 11:32:05;;;;;;;1.50;0.60;;;15.10;99.90;;;;;;5012151;28;20468;-74
2023/02/17 11:34:33;;;;;;;1.20;0.50;;;14.90;99.90;;;;;;5011854;28;20433;-73
2023/02/17 11:37:20;;;;;;;1.13;0.50;;;14.80;99.90;;;;;;5012268;28;20472;-73
2023/02/17 11:39:49;;;;;;;2.13;0.70;;;14.70;99.90;;;;;;5004967;28;20425;-75
2023/02/17 11:42:31;;;;;;;1.30;0.50;;;14.60;99.90;;;;;;5012055;28;20488;-73
2023/02/17 11:44:59;;;;;;;1.30;0.60;;;14.50;99.90;;;;;;5011626;28;20430;-75
2023/02/17 11:47:58;;;;;;;2.50;0.53;;;14.50;99.90;;;;;;5011019;28;20430;-75
2023/02/17 11:50:42;;;;;;;1.30;0.60;;;14.40;99.90;;;;;;5010308;28;20430;-75
2023/02/17 11:53:42;;;;;;;2.67;0.80;;;14.40;99.90;;;;;;5009995;28;20440;-72
2023/02/17 11:56:16;;;;;;;3.47;0.70;;;14.40;99.90;;;;;;5007307;28;20429;-73
2023/02/17 11:59:19;;;;;;;2.70;0.60;;;14.40;99.90;;;;;;5003904;28;20457;-76
2023/02/17 12:02:03;;;;;;;3.70;0.60;;;14.50;99.90;;;;;;5010602;28;20511;-74
2023/02/17 12:04:31;;;;;;;3.93;1.77;;;14.60;99.90;;;;;;5011403;28;20430;-74
2023/02/17 12:07:17;;;;;;;1.07;0.50;;;14.50;99.90;;;;;;5010818;28;20761;-74
2023/02/17 12:10:16;;;;;;;2.50;0.60;;;14.50;99.90;;;;;;5002756;28;20424;-74
2023/02/17 12:13:14;;;;;;;1.20;0.60;;;14.40;99.90;;;;;;5011129;28;20483;-73
2023/02/17 12:15:55;;;;;;;1.80;0.60;;;14.30;99.90;;;;;;5009949;28;20430;-74
2023/02/17 12:18:20;;;;;;;1.57;0.50;;;14.30;99.90;;;;;;5011032;28;20563;-74
2023/02/17 12:21:07;;;;;;;2.50;0.50;;;14.30;99.90;;;;;;4993450;28;20536;-74
2023/02/17 12:24:01;;;;;;;1.80;0.80;;;14.40;99.90;;;;;;5011543;28;20502;-74
2023/02/17 12:26:36;;;;;;;3.40;0.50;;;14.30;99.90;;;;;;5011668;28;20782;-74
2023/02/17 12:29:13;;;;;;;2.03;0.50;;;14.40;99.90;;;;;;5011763;28;20432;-73
2023/02/17 12:31:41;;;;;;;1.50;0.60;;;14.30;99.90;;;;;;5009955;28;20991;-74
2023/02/17 12:34:38;;;;;;;2.80;0.70;;;14.30;99.90;;;;;;5010618;28;20964;-75
2023/02/17 12:37:06;;;;;;;1.73;0.60;;;14.40;99.90;;;;;;4993007;28;20918;-76
2023/02/17 12:39:42;;;;;;;3.77;2.20;;;14.50;99.90;;;;;;5011396;28;20477;-74
2023/02/17 12:42:24;;;;;;;1.90;0.67;;;14.60;99.90;;;;;;5010637;28;20461;-75
2023/02/17 12:44:55;;;;;;;1.20;0.50;;;14.60;99.90;;;;;;5003166;28;20472;-76
2023/02/17 12:47:32;;;;;;;1.30;0.50;;;14.70;99.90;;;;;;5011456;28;20918;-74
2023/02/17 12:50:09;;;;;;;2.70;0.60;;;14.80;99.90;;;;;;5012915;28;20670;-74
2023/02/17 12:52:43;;;;;;;1.10;0.50;;;14.90;99.90;;;;;;5011003;28;20460;-73
2023/02/17 12:55:23;;;;;;;1.53;0.60;;;14.90;99.90;;;;;;5010580;28;20442;-73
2023/02/17 12:57:57;;;;;;;1.80;0.60;;;14.90;99.90;;;;;;5010624;28;20523;-75
2023/02/17 13:00:33;;;;;;;1.30;0.60;;;14.90;99.90;;;;;;5010554;28;20866;-71
2023/02/17 13:02:59;;;;;;;1.40;0.50;;;14.80;99.90;;;;;;5012429;28;20531;-73
2023/02/17 13:05:34;;;;;;;1.93;0.60;;;14.80;99.90;;;;;;5013128;28;20495;-74
2023/02/17 13:08:06;;;;;;;1.43;0.60;;;14.80;99.90;;;;;;5012723;28;20484;-74
2023/02/17 13:10:34;;;;;;;2.10;0.70;;;14.80;99.90;;;;;;5014918;28;21179;-75
2023/02/17 13:13:13;;;;;;;2.27;0.80;;;14.70;99.90;;;;;;5015020;28;20512;-73
2023/02/17 13:15:41;;;;;;;5.10;0.80;;;14.70;99.90;;;;;;5014283;28;20479;-73
2023/02/17 13:18:13;;;;;;;4.70;0.70;;;14.60;99.90;;;;;;5014779;28;20476;-72
2023/02/17 13:20:44;;;;;;;1.83;0.60;;;14.60;99.90;;;;;;5014717;28;20500;-73
2023/02/17 13:23:24;;;;;;;1.30;0.60;;;14.60;99.90;;;;;;5015062;28;20441;-73
2023/02/17 13:26:04;;;;;;;2.03;0.70;;;14.70;99.90;;;;;;5010803;28;20425;-73
2023/02/17 13:28:34;;;;;;;2.50;0.87;;;14.70;99.90;;;;;;5019424;28;20425;-72
2023/02/17 13:31:12;;;;;;;2.67;1.13;;;14.70;99.90;;;;;;5016505;28;20453;-73
2023/02/17 13:33:49;;;;;;;1.30;0.53;;;14.70;99.90;;;;;;5001815;28;21253;-73
2023/02/17 13:36:25;;;;;;;2.47;0.70;;;14.70;99.90;;;;;;5008219;28;20448;-73
2023/02/17 13:38:58;;;;;;;1.40;0.60;;;14.70;99.90;;;;;;5006712;28;20500;-75
2023/02/17 13:41:24;;;;;;;1.43;0.60;;;14.70;99.90;;;;;;5013719;28;20461;-73
2023/02/17 13:43:49;;;;;;;0.87;0.50;;;14.80;99.90;;;;;;5013723;28;20927;-74
2023/02/17 13:46:23;;;;;;;3.33;0.80;;;14.80;99.90;;;;;;5014193;28;20672;-73
2023/02/17 13:48:59;;;;;;;1.00;0.60;;;15.00;99.90;;;;;;5003565;28;20627;-73
2023/02/17 13:51:28;;;;;;;5.03;0.70;;;15.10;99.90;;;;;;5013346;28;20461;-74
2023/02/17 13:53:54;;;;;;;2.80;0.70;;;15.20;99.90;;;;;;5012558;28;20438;-73
2023/02/17 13:56:28;;;;;;;1.83;0.60;;;15.20;99.90;;;;;;5013459;28;20483;-74
2023/02/17 13:59:04;;;;;;;1.93;0.60;;;15.20;99.90;;;;;;5006130;28;20218;-72
2023/02/17 14:01:30;;;;;;;1.10;0.57;;;15.30;99.90;;;;;;5018737;28;20460;-73
2023/02/17 14:03:58;;;;;;;2.00;0.63;;;15.30;99.90;;;;;;4995580;28;20441;-74
2023/02/17 14:06:31;;;;;;;0.80;0.50;;;15.30;99.90;;;;;;5013766;28;20294;-71
2023/02/17 14:08:57;;;;;;;3.37;0.77;;;15.20;99.90;;;;;;5013440;28;20459;-75
2023/02/17 14:11:26;;;;;;;3.20;0.70;;;15.30;99.90;;;;;;5013405;28;20496;-74
2023/02/17 14:13:55;;;;;;;1.20;0.70;;;15.20;99.90;;;;;;5012436;28;20854;-72
2023/02/17 14:16:35;;;;;;;4.83;1.00;;;15.20;99.90;;;;;;5014566;28;20444;-71
2023/02/17 14:19:01;;;;;;;1.00;0.60;;;15.20;99.90;;;;;;5008082;28;20901;-73
2023/02/17 14:21:26;;;;;;;1.43;0.63;;;15.30;99.90;;;;;;5014351;28;20458;-74
2023/02/17 14:23:55;;;;;;;1.10;0.60;;;15.40;99.90;;;;;;5014562;28;20226;-74
2023/02/17 14:26:41;;;;;;;1.03;0.70;;;15.30;99.90;;;;;;5014550;28;20191;-75
2023/02/17 14:29:09;;;;;;;1.00;0.60;;;15.20;99.90;;;;;;5003812;28;20441;-73
2023/02/17 14:31:41;;;;;;;1.57;0.80;;;15.10;99.90;;;;;;4994759;28;20982;-72
2023/02/17 14:34:11;;;;;;;0.90;0.50;;;15.00;99.90;;;;;;5012816;28;20522;-73
2023/02/17 14:36:38;;;;;;;1.53;0.70;;;15.00;99.90;;;;;;4994847;28;20490;-73
2023/02/17 14:39:06;;;;;;;2.80;0.70;;;14.90;99.90;;;;;;5013204;28;20991;-73